sensor_id;sensor_type;location;lat;lon;timestamp;P1;durP1;ratioP1;P2;durP2;ratioP2
75680;SDS011;64294;49.176;16.626;2023-04-22T00:02:01;25.17;;;16.98;;
75680;SDS011;64294;49.176;16.626;2023-04-22T00:04:27;26.30;;;16.92;;
75680;SDS011;64294;49.176;16.626;2023-04-22T00:06:52;26.40;;;16.48;;
75680;SDS011;64294;49.176;16.626;2023-04-22T00:09:18;25.92;;;16.48;;
75680;SDS011;64294;49.176;16.626;2023-04-22T00:11:43;21.92;;;15.80;;
75680;SDS011;64294;49.176;16.626;2023-04-22T00:14:08;26.88;;;16.83;;
75680;SDS011;64294;49.176;16.626;2023-04-22T00:16:34;26.63;;;16.10;;
75680;SDS011;64294;49.176;16.626;2023-04-22T00:19:05;25.58;;;16.50;;
75680;SDS011;64294;49.176;16.626;2023-04-22T00:21:31;27.25;;;16.05;;
75680;SDS011;64294;49.176;16.626;2023-04-22T00:23:56;28.55;;;16.35;;
75680;SDS011;64294;49.176;16.626;2023-04-22T00:26:22;24.42;;;16.08;;
75680;SDS011;64294;49.176;16.626;2023-04-22T00:28:48;25.13;;;16.92;;
75680;SDS011;64294;49.176;16.626;2023-04-22T00:31:14;29.05;;;16.98;;
75680;SDS011;64294;49.176;16.626;2023-04-22T00:33:39;24.83;;;15.82;;
75680;SDS011;64294;49.176;16.626;2023-04-22T00:36:05;26.20;;;15.77;;
75680;SDS011;64294;49.176;16.626;2023-04-22T00:38:31;23.27;;;15.70;;
75680;SDS011;64294;49.176;16.626;2023-04-22T00:40:56;24.33;;;15.13;;
75680;SDS011;64294;49.176;16.626;2023-04-22T00:43:22;23.58;;;15.43;;
75680;SDS011;64294;49.176;16.626;2023-04-22T00:45:47;26.15;;;16.08;;
75680;SDS011;64294;49.176;16.626;2023-04-22T00:48:13;28.52;;;16.00;;
75680;SDS011;64294;49.176;16.626;2023-04-22T00:50:39;25.45;;;16.08;;
75680;SDS011;64294;49.176;16.626;2023-04-22T00:53:04;23.40;;;15.75;;
75680;SDS011;64294;49.176;16.626;2023-04-22T00:55:29;22.85;;;15.77;;
75680;SDS011;64294;49.176;16.626;2023-04-22T00:57:55;30.10;;;16.77;;
75680;SDS011;64294;49.176;16.626;2023-04-22T01:00:24;24.17;;;16.35;;
75680;SDS011;64294;49.176;16.626;2023-04-22T01:02:54;24.50;;;15.75;;
75680;SDS011;64294;49.176;16.626;2023-04-22T01:05:20;25.10;;;16.63;;
75680;SDS011;64294;49.176;16.626;2023-04-22T01:07:46;24.77;;;15.70;;
75680;SDS011;64294;49.176;16.626;2023-04-22T01:10:11;25.10;;;16.40;;
75680;SDS011;64294;49.176;16.626;2023-04-22T01:12:37;25.33;;;15.65;;
75680;SDS011;64294;49.176;16.626;2023-04-22T01:15:03;23.33;;;16.40;;
75680;SDS011;64294;49.176;16.626;2023-04-22T01:17:29;27.48;;;15.90;;
75680;SDS011;64294;49.176;16.626;2023-04-22T01:19:56;26.30;;;17.00;;
75680;SDS011;64294;49.176;16.626;2023-04-22T01:22:22;26.10;;;16.27;;
75680;SDS011;64294;49.176;16.626;2023-04-22T01:24:55;25.15;;;16.65;;
75680;SDS011;64294;49.176;16.626;2023-04-22T01:27:20;23.95;;;16.70;;
75680;SDS011;64294;49.176;16.626;2023-04-22T01:29:46;23.13;;;15.80;;
75680;SDS011;64294;49.176;16.626;2023-04-22T01:32:12;25.08;;;16.35;;
75680;SDS011;64294;49.176;16.626;2023-04-22T01:34:41;23.92;;;16.23;;
75680;SDS011;64294;49.176;16.626;2023-04-22T01:37:06;25.48;;;16.05;;
75680;SDS011;64294;49.176;16.626;2023-04-22T01:39:32;23.40;;;16.60;;
75680;SDS011;64294;49.176;16.626;2023-04-22T01:41:57;25.95;;;16.92;;
75680;SDS011;64294;49.176;16.626;2023-04-22T01:44:24;27.63;;;16.77;;
75680;SDS011;64294;49.176;16.626;2023-04-22T01:46:50;26.08;;;16.45;;
75680;SDS011;64294;49.176;16.626;2023-04-22T01:49:15;23.98;;;15.88;;
75680;SDS011;64294;49.176;16.626;2023-04-22T01:51:41;23.98;;;16.17;;
75680;SDS011;64294;49.176;16.626;2023-04-22T01:54:06;24.88;;;16.90;;
75680;SDS011;64294;49.176;16.626;2023-04-22T01:56:34;25.27;;;16.65;;
75680;SDS011;64294;49.176;16.626;2023-04-22T01:58:59;24.65;;;16.45;;
75680;SDS011;64294;49.176;16.626;2023-04-22T02:01:25;24.38;;;16.63;;
75680;SDS011;64294;49.176;16.626;2023-04-22T02:03:50;28.15;;;16.20;;
75680;SDS011;64294;49.176;16.626;2023-04-22T02:06:15;24.27;;;16.77;;
75680;SDS011;64294;49.176;16.626;2023-04-22T02:08:41;26.45;;;17.20;;
75680;SDS011;64294;49.176;16.626;2023-04-22T02:11:06;27.90;;;17.23;;
75680;SDS011;64294;49.176;16.626;2023-04-22T02:13:38;27.08;;;16.33;;
75680;SDS011;64294;49.176;16.626;2023-04-22T02:16:04;29.52;;;16.48;;
75680;SDS011;64294;49.176;16.626;2023-04-22T02:18:30;25.63;;;17.05;;
75680;SDS011;64294;49.176;16.626;2023-04-22T02:20:56;27.48;;;17.60;;
75680;SDS011;64294;49.176;16.626;2023-04-22T02:23:22;28.10;;;17.20;;
75680;SDS011;64294;49.176;16.626;2023-04-22T02:25:48;27.90;;;16.70;;
75680;SDS011;64294;49.176;16.626;2023-04-22T02:28:15;25.90;;;17.63;;
75680;SDS011;64294;49.176;16.626;2023-04-22T02:30:40;24.40;;;17.08;;
75680;SDS011;64294;49.176;16.626;2023-04-22T02:33:06;24.58;;;17.15;;
75680;SDS011;64294;49.176;16.626;2023-04-22T02:35:31;27.40;;;17.20;;
75680;SDS011;64294;49.176;16.626;2023-04-22T02:37:57;26.58;;;17.40;;
75680;SDS011;64294;49.176;16.626;2023-04-22T02:40:22;26.17;;;17.27;;
75680;SDS011;64294;49.176;16.626;2023-04-22T02:42:48;25.30;;;16.35;;
75680;SDS011;64294;49.176;16.626;2023-04-22T02:45:13;29.38;;;18.50;;
75680;SDS011;64294;49.176;16.626;2023-04-22T02:47:39;25.52;;;16.23;;
75680;SDS011;64294;49.176;16.626;2023-04-22T02:50:05;27.23;;;17.83;;
75680;SDS011;64294;49.176;16.626;2023-04-22T02:52:32;24.58;;;16.33;;
75680;SDS011;64294;49.176;16.626;2023-04-22T02:54:58;26.83;;;17.00;;
75680;SDS011;64294;49.176;16.626;2023-04-22T02:57:23;28.55;;;17.45;;
75680;SDS011;64294;49.176;16.626;2023-04-22T02:59:49;31.35;;;17.13;;
75680;SDS011;64294;49.176;16.626;2023-04-22T03:02:14;25.52;;;16.75;;
75680;SDS011;64294;49.176;16.626;2023-04-22T03:04:40;23.50;;;16.92;;
75680;SDS011;64294;49.176;16.626;2023-04-22T03:07:09;22.90;;;16.23;;
75680;SDS011;64294;49.176;16.626;2023-04-22T03:09:35;24.55;;;16.42;;
75680;SDS011;64294;49.176;16.626;2023-04-22T03:12:00;27.52;;;17.08;;
75680;SDS011;64294;49.176;16.626;2023-04-22T03:14:26;24.52;;;17.30;;
75680;SDS011;64294;49.176;16.626;2023-04-22T03:16:52;28.45;;;17.23;;
75680;SDS011;64294;49.176;16.626;2023-04-22T03:19:17;28.70;;;17.27;;
75680;SDS011;64294;49.176;16.626;2023-04-22T03:21:43;28.98;;;17.10;;
75680;SDS011;64294;49.176;16.626;2023-04-22T03:24:08;25.52;;;16.52;;
75680;SDS011;64294;49.176;16.626;2023-04-22T03:26:34;25.98;;;16.13;;
75680;SDS011;64294;49.176;16.626;2023-04-22T03:28:59;27.92;;;17.05;;
75680;SDS011;64294;49.176;16.626;2023-04-22T03:31:25;25.08;;;16.48;;
75680;SDS011;64294;49.176;16.626;2023-04-22T03:33:50;25.23;;;16.80;;
75680;SDS011;64294;49.176;16.626;2023-04-22T03:36:16;24.77;;;17.00;;
75680;SDS011;64294;49.176;16.626;2023-04-22T03:38:41;32.28;;;17.63;;
75680;SDS011;64294;49.176;16.626;2023-04-22T03:41:06;25.25;;;15.30;;
75680;SDS011;64294;49.176;16.626;2023-04-22T03:43:32;27.80;;;16.73;;
75680;SDS011;64294;49.176;16.626;2023-04-22T03:45:58;24.23;;;16.35;;
75680;SDS011;64294;49.176;16.626;2023-04-22T03:48:23;27.98;;;16.60;;
75680;SDS011;64294;49.176;16.626;2023-04-22T03:50:49;24.02;;;16.05;;
75680;SDS011;64294;49.176;16.626;2023-04-22T03:53:14;24.60;;;16.45;;
75680;SDS011;64294;49.176;16.626;2023-04-22T03:55:40;24.50;;;16.20;;
75680;SDS011;64294;49.176;16.626;2023-04-22T03:58:05;26.40;;;16.80;;
75680;SDS011;64294;49.176;16.626;2023-04-22T04:00:31;23.55;;;16.02;;
75680;SDS011;64294;49.176;16.626;2023-04-22T04:02:57;26.90;;;17.05;;
75680;SDS011;64294;49.176;16.626;2023-04-22T04:05:23;26.33;;;17.05;;
75680;SDS011;64294;49.176;16.626;2023-04-22T04:07:48;26.30;;;17.08;;
75680;SDS011;64294;49.176;16.626;2023-04-22T04:10:14;26.67;;;17.80;;
75680;SDS011;64294;49.176;16.626;2023-04-22T04:12:39;25.23;;;17.15;;
75680;SDS011;64294;49.176;16.626;2023-04-22T04:15:05;25.08;;;16.88;;
75680;SDS011;64294;49.176;16.626;2023-04-22T04:17:31;26.13;;;17.80;;
75680;SDS011;64294;49.176;16.626;2023-04-22T04:19:57;27.20;;;17.25;;
75680;SDS011;64294;49.176;16.626;2023-04-22T04:22:22;24.90;;;15.52;;
75680;SDS011;64294;49.176;16.626;2023-04-22T04:24:48;25.20;;;15.63;;
75680;SDS011;64294;49.176;16.626;2023-04-22T04:27:14;23.40;;;16.48;;
75680;SDS011;64294;49.176;16.626;2023-04-22T04:29:39;80.68;;;37.47;;
75680;SDS011;64294;49.176;16.626;2023-04-22T04:32:08;34.92;;;20.88;;
75680;SDS011;64294;49.176;16.626;2023-04-22T04:34:34;34.90;;;20.27;;
75680;SDS011;64294;49.176;16.626;2023-04-22T04:37:00;28.88;;;17.85;;
75680;SDS011;64294;49.176;16.626;2023-04-22T04:39:26;24.45;;;17.27;;
75680;SDS011;64294;49.176;16.626;2023-04-22T04:41:52;33.53;;;17.40;;
75680;SDS011;64294;49.176;16.626;2023-04-22T04:44:19;28.10;;;17.58;;
75680;SDS011;64294;49.176;16.626;2023-04-22T04:46:46;25.65;;;17.42;;
75680;SDS011;64294;49.176;16.626;2023-04-22T04:49:11;27.63;;;17.80;;
75680;SDS011;64294;49.176;16.626;2023-04-22T04:51:37;30.00;;;17.58;;
75680;SDS011;64294;49.176;16.626;2023-04-22T04:54:03;24.42;;;15.85;;
75680;SDS011;64294;49.176;16.626;2023-04-22T04:56:29;26.30;;;16.73;;
75680;SDS011;64294;49.176;16.626;2023-04-22T04:58:55;24.92;;;16.35;;
75680;SDS011;64294;49.176;16.626;2023-04-22T05:01:20;25.92;;;15.68;;
75680;SDS011;64294;49.176;16.626;2023-04-22T05:03:46;26.10;;;15.55;;
75680;SDS011;64294;49.176;16.626;2023-04-22T05:06:11;26.13;;;15.13;;
75680;SDS011;64294;49.176;16.626;2023-04-22T05:08:36;21.58;;;15.30;;
75680;SDS011;64294;49.176;16.626;2023-04-22T05:11:02;23.67;;;15.10;;
75680;SDS011;64294;49.176;16.626;2023-04-22T05:13:28;22.33;;;14.57;;
75680;SDS011;64294;49.176;16.626;2023-04-22T05:15:53;21.67;;;14.73;;
75680;SDS011;64294;49.176;16.626;2023-04-22T05:18:19;22.17;;;14.73;;
75680;SDS011;64294;49.176;16.626;2023-04-22T05:20:45;24.73;;;14.25;;
75680;SDS011;64294;49.176;16.626;2023-04-22T05:23:10;22.05;;;14.45;;
75680;SDS011;64294;49.176;16.626;2023-04-22T05:25:36;22.80;;;14.25;;
75680;SDS011;64294;49.176;16.626;2023-04-22T05:28:01;22.05;;;15.15;;
75680;SDS011;64294;49.176;16.626;2023-04-22T05:30:27;22.00;;;14.43;;
75680;SDS011;64294;49.176;16.626;2023-04-22T05:32:52;21.45;;;13.98;;
75680;SDS011;64294;49.176;16.626;2023-04-22T05:35:17;22.05;;;13.75;;
75680;SDS011;64294;49.176;16.626;2023-04-22T05:37:43;19.98;;;14.02;;
75680;SDS011;64294;49.176;16.626;2023-04-22T05:40:11;22.67;;;14.65;;
75680;SDS011;64294;49.176;16.626;2023-04-22T05:42:37;20.80;;;13.65;;
75680;SDS011;64294;49.176;16.626;2023-04-22T05:45:02;19.17;;;12.88;;
75680;SDS011;64294;49.176;16.626;2023-04-22T05:47:28;19.80;;;13.25;;
75680;SDS011;64294;49.176;16.626;2023-04-22T05:49:54;19.83;;;13.07;;
75680;SDS011;64294;49.176;16.626;2023-04-22T05:52:20;18.52;;;12.80;;
75680;SDS011;64294;49.176;16.626;2023-04-22T05:54:45;20.00;;;13.20;;
75680;SDS011;64294;49.176;16.626;2023-04-22T05:57:11;18.38;;;13.13;;
75680;SDS011;64294;49.176;16.626;2023-04-22T05:59:36;21.45;;;13.15;;
75680;SDS011;64294;49.176;16.626;2023-04-22T06:02:02;22.52;;;12.98;;
75680;SDS011;64294;49.176;16.626;2023-04-22T06:04:27;16.92;;;12.38;;
75680;SDS011;64294;49.176;16.626;2023-04-22T06:06:53;17.30;;;12.30;;
75680;SDS011;64294;49.176;16.626;2023-04-22T06:09:19;19.38;;;12.07;;
75680;SDS011;64294;49.176;16.626;2023-04-22T06:11:45;17.73;;;12.70;;
75680;SDS011;64294;49.176;16.626;2023-04-22T06:14:11;18.05;;;12.07;;
75680;SDS011;64294;49.176;16.626;2023-04-22T06:16:37;18.65;;;12.80;;
75680;SDS011;64294;49.176;16.626;2023-04-22T06:19:02;17.90;;;12.05;;
75680;SDS011;64294;49.176;16.626;2023-04-22T06:21:28;17.80;;;12.35;;
75680;SDS011;64294;49.176;16.626;2023-04-22T06:23:53;18.20;;;11.68;;
75680;SDS011;64294;49.176;16.626;2023-04-22T06:26:18;18.02;;;12.20;;
75680;SDS011;64294;49.176;16.626;2023-04-22T06:28:44;16.48;;;11.77;;
75680;SDS011;64294;49.176;16.626;2023-04-22T06:31:10;16.25;;;11.18;;
75680;SDS011;64294;49.176;16.626;2023-04-22T06:33:35;16.60;;;11.50;;
75680;SDS011;64294;49.176;16.626;2023-04-22T06:36:01;17.17;;;11.25;;
75680;SDS011;64294;49.176;16.626;2023-04-22T06:38:26;16.30;;;11.10;;
75680;SDS011;64294;49.176;16.626;2023-04-22T06:40:51;19.50;;;11.60;;
75680;SDS011;64294;49.176;16.626;2023-04-22T06:43:17;14.18;;;10.95;;
75680;SDS011;64294;49.176;16.626;2023-04-22T06:45:42;15.85;;;10.82;;
75680;SDS011;64294;49.176;16.626;2023-04-22T06:48:08;13.38;;;10.07;;
75680;SDS011;64294;49.176;16.626;2023-04-22T06:50:33;16.58;;;10.23;;
75680;SDS011;64294;49.176;16.626;2023-04-22T06:52:58;14.73;;;10.52;;
75680;SDS011;64294;49.176;16.626;2023-04-22T06:55:24;13.68;;;9.93;;
75680;SDS011;64294;49.176;16.626;2023-04-22T06:57:49;13.77;;;9.57;;
75680;SDS011;64294;49.176;16.626;2023-04-22T07:00:15;12.43;;;9.20;;
75680;SDS011;64294;49.176;16.626;2023-04-22T07:02:41;13.13;;;9.45;;
75680;SDS011;64294;49.176;16.626;2023-04-22T07:05:06;12.90;;;9.43;;
75680;SDS011;64294;49.176;16.626;2023-04-22T07:07:32;11.57;;;9.50;;
75680;SDS011;64294;49.176;16.626;2023-04-22T07:09:57;12.15;;;10.23;;
75680;SDS011;64294;49.176;16.626;2023-04-22T07:12:23;15.15;;;10.40;;
75680;SDS011;64294;49.176;16.626;2023-04-22T07:14:49;12.35;;;9.55;;
75680;SDS011;64294;49.176;16.626;2023-04-22T07:17:15;15.60;;;10.13;;
75680;SDS011;64294;49.176;16.626;2023-04-22T07:19:43;12.52;;;9.80;;
75680;SDS011;64294;49.176;16.626;2023-04-22T07:22:08;14.50;;;9.80;;
75680;SDS011;64294;49.176;16.626;2023-04-22T07:24:34;14.25;;;9.50;;
75680;SDS011;64294;49.176;16.626;2023-04-22T07:26:59;12.20;;;9.43;;
75680;SDS011;64294;49.176;16.626;2023-04-22T07:29:26;11.80;;;9.32;;
75680;SDS011;64294;49.176;16.626;2023-04-22T07:31:52;12.48;;;9.80;;
75680;SDS011;64294;49.176;16.626;2023-04-22T07:34:17;16.50;;;9.27;;
75680;SDS011;64294;49.176;16.626;2023-04-22T07:36:42;13.65;;;9.52;;
75680;SDS011;64294;49.176;16.626;2023-04-22T07:39:08;13.50;;;9.13;;
75680;SDS011;64294;49.176;16.626;2023-04-22T07:41:34;15.38;;;9.85;;
75680;SDS011;64294;49.176;16.626;2023-04-22T07:44:00;13.82;;;10.63;;
75680;SDS011;64294;49.176;16.626;2023-04-22T07:46:25;17.10;;;9.82;;
75680;SDS011;64294;49.176;16.626;2023-04-22T07:48:51;11.43;;;9.13;;
75680;SDS011;64294;49.176;16.626;2023-04-22T07:51:16;11.25;;;9.13;;
75680;SDS011;64294;49.176;16.626;2023-04-22T07:53:42;9.93;;;7.80;;
75680;SDS011;64294;49.176;16.626;2023-04-22T07:56:07;9.27;;;6.30;;
75680;SDS011;64294;49.176;16.626;2023-04-22T07:58:32;9.63;;;6.70;;
75680;SDS011;64294;49.176;16.626;2023-04-22T08:00:58;9.93;;;5.90;;
75680;SDS011;64294;49.176;16.626;2023-04-22T08:03:23;11.18;;;5.82;;
75680;SDS011;64294;49.176;16.626;2023-04-22T08:05:49;8.23;;;5.40;;
75680;SDS011;64294;49.176;16.626;2023-04-22T08:08:14;9.18;;;5.72;;
75680;SDS011;64294;49.176;16.626;2023-04-22T08:10:39;8.75;;;6.05;;
75680;SDS011;64294;49.176;16.626;2023-04-22T08:13:05;8.10;;;5.57;;
75680;SDS011;64294;49.176;16.626;2023-04-22T08:15:30;10.93;;;5.70;;
75680;SDS011;64294;49.176;16.626;2023-04-22T08:17:56;10.68;;;5.68;;
75680;SDS011;64294;49.176;16.626;2023-04-22T08:20:21;8.90;;;5.88;;
75680;SDS011;64294;49.176;16.626;2023-04-22T08:22:46;8.82;;;6.18;;
75680;SDS011;64294;49.176;16.626;2023-04-22T08:25:14;7.30;;;5.22;;
75680;SDS011;64294;49.176;16.626;2023-04-22T08:27:40;7.25;;;5.40;;
75680;SDS011;64294;49.176;16.626;2023-04-22T08:30:07;10.55;;;6.20;;
75680;SDS011;64294;49.176;16.626;2023-04-22T08:32:32;11.02;;;5.68;;
75680;SDS011;64294;49.176;16.626;2023-04-22T08:34:58;8.75;;;5.75;;
75680;SDS011;64294;49.176;16.626;2023-04-22T08:37:24;7.25;;;5.40;;
75680;SDS011;64294;49.176;16.626;2023-04-22T08:39:49;7.72;;;5.60;;
75680;SDS011;64294;49.176;16.626;2023-04-22T08:42:15;11.00;;;5.75;;
75680;SDS011;64294;49.176;16.626;2023-04-22T08:44:41;8.75;;;5.70;;
75680;SDS011;64294;49.176;16.626;2023-04-22T08:47:08;8.35;;;5.55;;
75680;SDS011;64294;49.176;16.626;2023-04-22T08:49:34;9.95;;;5.68;;
75680;SDS011;64294;49.176;16.626;2023-04-22T08:52:00;12.35;;;6.13;;
75680;SDS011;64294;49.176;16.626;2023-04-22T08:54:26;10.07;;;5.82;;
75680;SDS011;64294;49.176;16.626;2023-04-22T08:56:51;11.77;;;5.82;;
75680;SDS011;64294;49.176;16.626;2023-04-22T08:59:18;11.82;;;5.10;;
75680;SDS011;64294;49.176;16.626;2023-04-22T09:01:48;10.05;;;5.50;;
75680;SDS011;64294;49.176;16.626;2023-04-22T09:04:16;9.80;;;5.68;;
75680;SDS011;64294;49.176;16.626;2023-04-22T09:06:42;10.25;;;5.30;;
75680;SDS011;64294;49.176;16.626;2023-04-22T09:09:08;10.30;;;6.00;;
75680;SDS011;64294;49.176;16.626;2023-04-22T09:11:34;8.13;;;5.20;;
75680;SDS011;64294;49.176;16.626;2023-04-22T09:14:00;11.52;;;5.60;;
75680;SDS011;64294;49.176;16.626;2023-04-22T09:16:28;9.68;;;5.57;;
75680;SDS011;64294;49.176;16.626;2023-04-22T09:18:57;9.52;;;5.43;;
75680;SDS011;64294;49.176;16.626;2023-04-22T09:21:24;8.77;;;5.70;;
75680;SDS011;64294;49.176;16.626;2023-04-22T09:23:52;8.63;;;6.28;;
75680;SDS011;64294;49.176;16.626;2023-04-22T09:26:21;9.55;;;5.80;;
75680;SDS011;64294;49.176;16.626;2023-04-22T09:28:55;8.70;;;5.95;;
75680;SDS011;64294;49.176;16.626;2023-04-22T09:31:28;10.35;;;5.35;;
75680;SDS011;64294;49.176;16.626;2023-04-22T09:33:54;10.07;;;5.38;;
75680;SDS011;64294;49.176;16.626;2023-04-22T09:36:24;9.70;;;5.90;;
75680;SDS011;64294;49.176;16.626;2023-04-22T09:38:55;9.98;;;6.07;;
75680;SDS011;64294;49.176;16.626;2023-04-22T09:41:26;8.07;;;5.65;;
75680;SDS011;64294;49.176;16.626;2023-04-22T09:43:58;9.68;;;5.50;;
75680;SDS011;64294;49.176;16.626;2023-04-22T09:46:26;11.18;;;5.15;;
75680;SDS011;64294;49.176;16.626;2023-04-22T09:48:55;11.02;;;5.55;;
75680;SDS011;64294;49.176;16.626;2023-04-22T09:51:22;9.52;;;5.38;;
75680;SDS011;64294;49.176;16.626;2023-04-22T09:54:01;11.02;;;5.55;;
75680;SDS011;64294;49.176;16.626;2023-04-22T09:56:40;9.77;;;4.47;;
75680;SDS011;64294;49.176;16.626;2023-04-22T09:59:19;7.77;;;4.57;;
75680;SDS011;64294;49.176;16.626;2023-04-22T10:01:50;8.38;;;4.50;;
75680;SDS011;64294;49.176;16.626;2023-04-22T10:04:17;8.38;;;5.18;;
75680;SDS011;64294;49.176;16.626;2023-04-22T10:06:45;8.73;;;4.60;;
75680;SDS011;64294;49.176;16.626;2023-04-22T10:09:11;9.27;;;5.40;;
75680;SDS011;64294;49.176;16.626;2023-04-22T10:11:38;8.05;;;5.25;;
75680;SDS011;64294;49.176;16.626;2023-04-22T10:14:05;12.63;;;5.05;;
75680;SDS011;64294;49.176;16.626;2023-04-22T10:16:31;12.23;;;5.65;;
75680;SDS011;64294;49.176;16.626;2023-04-22T10:18:59;10.23;;;5.85;;
75680;SDS011;64294;49.176;16.626;2023-04-22T10:21:27;10.93;;;5.18;;
75680;SDS011;64294;49.176;16.626;2023-04-22T10:23:56;9.65;;;5.05;;
75680;SDS011;64294;49.176;16.626;2023-04-22T10:26:42;7.35;;;4.50;;
75680;SDS011;64294;49.176;16.626;2023-04-22T10:29:24;10.32;;;5.97;;
75680;SDS011;64294;49.176;16.626;2023-04-22T10:34:48;11.07;;;4.90;;
75680;SDS011;64294;49.176;16.626;2023-04-22T10:37:17;10.05;;;5.03;;
75680;SDS011;64294;49.176;16.626;2023-04-22T10:40:05;7.90;;;4.78;;
75680;SDS011;64294;49.176;16.626;2023-04-22T10:42:39;13.77;;;4.90;;
75680;SDS011;64294;49.176;16.626;2023-04-22T10:45:05;10.95;;;4.97;;
75680;SDS011;64294;49.176;16.626;2023-04-22T10:47:35;11.63;;;5.32;;
75680;SDS011;64294;49.176;16.626;2023-04-22T10:50:22;11.88;;;4.22;;
75680;SDS011;64294;49.176;16.626;2023-04-22T10:52:54;8.02;;;4.00;;
75680;SDS011;64294;49.176;16.626;2023-04-22T10:55:22;11.32;;;4.22;;
75680;SDS011;64294;49.176;16.626;2023-04-22T10:57:49;8.88;;;4.30;;
75680;SDS011;64294;49.176;16.626;2023-04-22T11:02:44;12.05;;;4.20;;
75680;SDS011;64294;49.176;16.626;2023-04-22T11:05:18;6.93;;;4.15;;
75680;SDS011;64294;49.176;16.626;2023-04-22T11:07:46;11.45;;;4.40;;
75680;SDS011;64294;49.176;16.626;2023-04-22T11:10:28;12.57;;;4.70;;
75680;SDS011;64294;49.176;16.626;2023-04-22T11:13:04;6.53;;;3.83;;
75680;SDS011;64294;49.176;16.626;2023-04-22T11:15:31;8.48;;;4.00;;
75680;SDS011;64294;49.176;16.626;2023-04-22T11:17:57;10.85;;;5.00;;
75680;SDS011;64294;49.176;16.626;2023-04-22T11:20:23;9.93;;;4.40;;
75680;SDS011;64294;49.176;16.626;2023-04-22T11:22:52;11.68;;;4.55;;
75680;SDS011;64294;49.176;16.626;2023-04-22T11:25:19;10.75;;;4.32;;
75680;SDS011;64294;49.176;16.626;2023-04-22T11:27:45;10.52;;;4.05;;
75680;SDS011;64294;49.176;16.626;2023-04-22T11:30:13;12.65;;;4.38;;
75680;SDS011;64294;49.176;16.626;2023-04-22T11:32:42;10.75;;;4.78;;
75680;SDS011;64294;49.176;16.626;2023-04-22T11:35:09;10.05;;;4.32;;
75680;SDS011;64294;49.176;16.626;2023-04-22T11:37:44;9.68;;;3.92;;
75680;SDS011;64294;49.176;16.626;2023-04-22T11:40:12;11.70;;;4.38;;
75680;SDS011;64294;49.176;16.626;2023-04-22T11:42:42;7.57;;;3.75;;
75680;SDS011;64294;49.176;16.626;2023-04-22T11:45:08;7.90;;;4.20;;
75680;SDS011;64294;49.176;16.626;2023-04-22T11:47:35;11.27;;;4.28;;
75680;SDS011;64294;49.176;16.626;2023-04-22T11:50:03;10.18;;;4.45;;
75680;SDS011;64294;49.176;16.626;2023-04-22T11:52:41;9.15;;;4.05;;
75680;SDS011;64294;49.176;16.626;2023-04-22T11:55:11;9.90;;;4.22;;
75680;SDS011;64294;49.176;16.626;2023-04-22T11:57:38;8.15;;;4.15;;
75680;SDS011;64294;49.176;16.626;2023-04-22T12:00:05;8.75;;;4.35;;
75680;SDS011;64294;49.176;16.626;2023-04-22T12:02:31;8.52;;;4.32;;
75680;SDS011;64294;49.176;16.626;2023-04-22T12:04:57;10.95;;;4.18;;
75680;SDS011;64294;49.176;16.626;2023-04-22T12:07:25;11.38;;;4.00;;
75680;SDS011;64294;49.176;16.626;2023-04-22T12:09:54;15.13;;;4.70;;
75680;SDS011;64294;49.176;16.626;2023-04-22T12:12:26;11.43;;;4.38;;
75680;SDS011;64294;49.176;16.626;2023-04-22T12:14:52;13.45;;;4.65;;
75680;SDS011;64294;49.176;16.626;2023-04-22T12:17:24;7.97;;;4.43;;
75680;SDS011;64294;49.176;16.626;2023-04-22T12:19:55;9.02;;;4.22;;
75680;SDS011;64294;49.176;16.626;2023-04-22T12:22:27;9.48;;;4.00;;
75680;SDS011;64294;49.176;16.626;2023-04-22T12:24:56;11.23;;;3.85;;
75680;SDS011;64294;49.176;16.626;2023-04-22T12:27:22;9.18;;;4.07;;
75680;SDS011;64294;49.176;16.626;2023-04-22T12:29:51;11.68;;;3.95;;
75680;SDS011;64294;49.176;16.626;2023-04-22T12:32:19;11.75;;;4.10;;
75680;SDS011;64294;49.176;16.626;2023-04-22T12:34:48;12.05;;;4.50;;
75680;SDS011;64294;49.176;16.626;2023-04-22T12:37:14;9.60;;;4.28;;
75680;SDS011;64294;49.176;16.626;2023-04-22T12:39:40;8.30;;;4.30;;
75680;SDS011;64294;49.176;16.626;2023-04-22T12:42:05;9.45;;;4.57;;
75680;SDS011;64294;49.176;16.626;2023-04-22T12:44:31;12.10;;;3.80;;
75680;SDS011;64294;49.176;16.626;2023-04-22T12:46:57;9.23;;;4.00;;
75680;SDS011;64294;49.176;16.626;2023-04-22T12:49:22;9.88;;;4.05;;
75680;SDS011;64294;49.176;16.626;2023-04-22T12:51:48;8.85;;;4.10;;
75680;SDS011;64294;49.176;16.626;2023-04-22T12:54:13;10.40;;;4.30;;
75680;SDS011;64294;49.176;16.626;2023-04-22T12:56:39;9.13;;;4.03;;
75680;SDS011;64294;49.176;16.626;2023-04-22T12:59:04;11.18;;;4.32;;
75680;SDS011;64294;49.176;16.626;2023-04-22T13:01:29;8.65;;;4.43;;
75680;SDS011;64294;49.176;16.626;2023-04-22T13:03:56;8.20;;;4.15;;
75680;SDS011;64294;49.176;16.626;2023-04-22T13:06:21;15.70;;;4.40;;
75680;SDS011;64294;49.176;16.626;2023-04-22T13:08:46;10.75;;;4.63;;
75680;SDS011;64294;49.176;16.626;2023-04-22T13:11:12;7.63;;;4.15;;
75680;SDS011;64294;49.176;16.626;2023-04-22T13:13:37;8.65;;;4.32;;
75680;SDS011;64294;49.176;16.626;2023-04-22T13:16:03;6.82;;;4.00;;
75680;SDS011;64294;49.176;16.626;2023-04-22T13:18:28;12.15;;;4.57;;
75680;SDS011;64294;49.176;16.626;2023-04-22T13:20:54;9.15;;;4.60;;
75680;SDS011;64294;49.176;16.626;2023-04-22T13:23:22;9.43;;;5.60;;
75680;SDS011;64294;49.176;16.626;2023-04-22T13:25:49;8.32;;;4.32;;
75680;SDS011;64294;49.176;16.626;2023-04-22T13:28:17;11.18;;;3.97;;
75680;SDS011;64294;49.176;16.626;2023-04-22T13:30:42;7.85;;;3.67;;
75680;SDS011;64294;49.176;16.626;2023-04-22T13:33:08;13.88;;;4.05;;
75680;SDS011;64294;49.176;16.626;2023-04-22T13:35:33;10.02;;;4.30;;
75680;SDS011;64294;49.176;16.626;2023-04-22T13:38:00;10.52;;;4.30;;
75680;SDS011;64294;49.176;16.626;2023-04-22T13:40:25;8.48;;;4.00;;
75680;SDS011;64294;49.176;16.626;2023-04-22T13:42:51;10.30;;;4.60;;
75680;SDS011;64294;49.176;16.626;2023-04-22T13:45:17;9.60;;;4.75;;
75680;SDS011;64294;49.176;16.626;2023-04-22T13:47:42;8.55;;;4.45;;
75680;SDS011;64294;49.176;16.626;2023-04-22T13:50:08;9.50;;;4.57;;
75680;SDS011;64294;49.176;16.626;2023-04-22T13:52:33;9.68;;;3.97;;
75680;SDS011;64294;49.176;16.626;2023-04-22T13:55:01;10.18;;;4.20;;
75680;SDS011;64294;49.176;16.626;2023-04-22T13:57:27;10.80;;;4.47;;
75680;SDS011;64294;49.176;16.626;2023-04-22T13:59:52;12.27;;;4.50;;
75680;SDS011;64294;49.176;16.626;2023-04-22T14:02:18;11.93;;;4.32;;
75680;SDS011;64294;49.176;16.626;2023-04-22T14:04:44;8.30;;;4.60;;
75680;SDS011;64294;49.176;16.626;2023-04-22T14:07:09;10.82;;;4.28;;
75680;SDS011;64294;49.176;16.626;2023-04-22T14:09:36;10.52;;;4.50;;
75680;SDS011;64294;49.176;16.626;2023-04-22T14:12:02;9.32;;;4.45;;
75680;SDS011;64294;49.176;16.626;2023-04-22T14:14:27;13.95;;;5.00;;
75680;SDS011;64294;49.176;16.626;2023-04-22T14:16:53;10.77;;;5.28;;
75680;SDS011;64294;49.176;16.626;2023-04-22T14:19:18;9.05;;;4.10;;
75680;SDS011;64294;49.176;16.626;2023-04-22T14:21:45;10.98;;;4.50;;